Accueil
METAR-TAF:

METAR-TAF

Aéroports :

Aéroport de Burgos

Burgos, Espagne

latitude: 42-22N, longitude: 003-38W, altitude: 894 m

Observation

Le bulletin a été fait il y a 27 minutes, à 10:30 UTC
Vent 13 kt de nord/nord-est, variant entre nord et est/nord-est
Température 20°C
Humidité 32%
Pression 1021 hPa
Visibilité 10 km ou plus
Quelques nuages à une hauteur de 5000 ft

METAR: LEBG 141030Z 03013KT 360V060 9999 FEW050 20/03 Q1021

Heure: 12:57 (10:57 UTC)

Prévision

Le bulletin a été fait il y a 2 heures et 57 minutes, à 08:00 UTC
Prévision valable du 14 à 09 UTC au 14 à 18 UTC
Vent 12 kt de nord-est
Visibilité 10 km ou plus
pas de nuages en-dessous de 1500 mètres et pas de cumulonimbus.
Probabilité 40% :
Temporairement
du 14 à 12 UTC au 14 à 18 UTC
Vent 15 kt de nord-est avec des rafales jusqu'à 25 kt

TAF: LEBG 140800Z 1409/1418 04012KT CAVOK PROB40 TEMPO 1412/1418 04015G25KT

Observations et prévisions météorologiques de plus de 4000 aéroports (messages METAR et TAF).

Les stations disponibles sont représentées par des disques jaunes et rouges sur la carte.

Passer la souris dessus pour voir le nom de la station.

Cliquer dessus pour voir les observations et prévisions météorologiques.

Pour changer de carte: cliquez sur les boutons verts avec une croix noire pour zoomer, sur le bouton vert avec un tiret pour effectuer un zoom arrière, ou sur les flèches vertes pour les cartes adjacentes.


METAR-TAF: